createdAt,value
2022-10-03T00:02:37.159Z,4.78
2022-10-03T00:05:16.826Z,4.88
2022-10-03T00:07:58.145Z,2.25
2022-10-03T00:10:35.996Z,4.07
2022-10-03T00:13:11.431Z,5.93
2022-10-03T00:15:47.399Z,16.52
2022-10-03T00:18:30.263Z,4.22
2022-10-03T00:21:13.435Z,4.35
2022-10-03T00:23:50.594Z,3.42
2022-10-03T00:26:28.569Z,4.32
2022-10-03T00:29:06.851Z,5.70
2022-10-03T00:31:44.225Z,4.68
2022-10-03T00:34:20.617Z,6.15
2022-10-03T00:36:55.977Z,5.50
2022-10-03T00:39:49.475Z,4.25
2022-10-03T00:42:44.891Z,4.72
2022-10-03T00:45:52.287Z,5.72
2022-10-03T00:48:52.384Z,5.47
2022-10-03T00:51:36.703Z,4.25
2022-10-03T00:57:07.331Z,4.10
2022-10-03T00:59:48.191Z,5.82
2022-10-03T01:02:42.683Z,5.25
2022-10-03T01:05:20.830Z,5.80
2022-10-03T01:08:07.014Z,4.72
2022-10-03T01:10:42.963Z,6.32
2022-10-03T01:13:28.266Z,8.75
2022-10-03T01:16:06.519Z,8.68
2022-10-03T01:18:45.231Z,6.88
2022-10-03T01:21:24.933Z,7.30
2022-10-03T01:24:26.691Z,7.32
2022-10-03T01:26:57.816Z,5.60
2022-10-03T01:29:41.707Z,6.95
2022-10-03T01:32:15.835Z,7.55
2022-10-03T01:37:17.428Z,5.55
2022-10-03T01:39:50.750Z,6.57
2022-10-03T01:42:31.712Z,6.23
2022-10-03T01:45:10.574Z,5.55
2022-10-03T01:47:44.202Z,4.70
2022-10-03T01:50:18.951Z,5.43
2022-10-03T01:52:54.149Z,9.52
2022-10-03T01:55:29.999Z,8.02
2022-10-03T01:58:01.394Z,6.63
2022-10-03T02:00:34.293Z,6.97
2022-10-03T02:03:09.969Z,5.38
2022-10-03T02:05:46.597Z,6.75
2022-10-03T02:08:23.952Z,7.35
2022-10-03T02:10:58.669Z,5.82
2022-10-03T02:13:30.820Z,5.85
2022-10-03T02:16:07.322Z,5.70
2022-10-03T02:18:42.478Z,8.75
2022-10-03T02:21:13.893Z,4.63
2022-10-03T02:23:43.036Z,5.82
2022-10-03T02:26:35.806Z,7.97
2022-10-03T02:29:25.191Z,5.97
2022-10-03T02:32:37.101Z,4.32
2022-10-03T02:35:20.658Z,5.90
2022-10-03T02:38:13.474Z,5.55
2022-10-03T02:41:34.234Z,6.80
2022-10-03T02:44:27.402Z,5.93
2022-10-03T02:47:32.540Z,7.70
2022-10-03T02:53:16.565Z,5.93
2022-10-03T02:56:07.402Z,6.32
2022-10-03T02:58:59.888Z,5.47
2022-10-03T03:02:07.876Z,7.95
2022-10-03T03:05:25.700Z,5.40
2022-10-03T03:08:22.117Z,6.53
2022-10-03T03:11:08.405Z,6.13
2022-10-03T03:14:15.078Z,5.53
2022-10-03T03:17:00.646Z,7.38
2022-10-03T03:19:43.732Z,9.25
2022-10-03T03:22:21.737Z,6.72
2022-10-03T03:25:07.131Z,8.93
2022-10-03T03:27:49.715Z,6.07
2022-10-03T03:30:20.544Z,8.60
2022-10-03T03:33:02.994Z,5.55
2022-10-03T03:35:41.739Z,6.25
2022-10-03T03:38:21.998Z,8.60
2022-10-03T03:41:05.703Z,7.82
2022-10-03T03:43:56.278Z,7.27
2022-10-03T03:46:35.467Z,5.55
2022-10-03T03:49:28.985Z,7.70
2022-10-03T03:52:09.945Z,7.88
2022-10-03T03:55:08.496Z,7.88
2022-10-03T03:57:51.879Z,8.05
2022-10-03T04:00:21.169Z,7.18
2022-10-03T04:03:10.528Z,7.70
2022-10-03T04:05:59.193Z,8.07
2022-10-03T04:08:47.175Z,7.35
2022-10-03T04:11:25.385Z,7.53
2022-10-03T04:14:19.521Z,5.82
2022-10-03T04:17:01.730Z,7.20
2022-10-03T04:19:38.891Z,7.38
2022-10-03T04:22:18.522Z,9.63
2022-10-03T04:25:17.861Z,6.90
2022-10-03T04:28:17.029Z,5.57
2022-10-03T04:30:59.790Z,6.43
2022-10-03T04:33:39.378Z,8.68
2022-10-03T04:36:27.881Z,6.75
2022-10-03T04:39:05.234Z,7.80
2022-10-03T04:41:43.202Z,7.80
2022-10-03T04:44:29.720Z,8.45
2022-10-03T04:47:01.889Z,6.90
2022-10-03T04:49:35.556Z,11.20
2022-10-03T04:52:13.244Z,8.02
2022-10-03T04:54:48.649Z,5.70
2022-10-03T04:57:25.099Z,8.52
2022-10-03T05:00:01.497Z,5.82
2022-10-03T05:02:42.260Z,7.55
2022-10-03T05:05:30.242Z,5.72
2022-10-03T05:08:05.128Z,8.77
2022-10-03T05:10:50.898Z,6.78
2022-10-03T05:13:28.839Z,9.65
2022-10-03T05:16:04.441Z,6.72
2022-10-03T05:18:40.417Z,6.75
2022-10-03T05:21:14.503Z,6.43
2022-10-03T05:26:44.012Z,5.80
2022-10-03T05:29:20.281Z,16.73
2022-10-03T05:31:53.937Z,11.73
2022-10-03T05:34:42.589Z,11.48
2022-10-03T05:37:37.403Z,10.50
2022-10-03T05:43:00.234Z,6.68
2022-10-03T05:45:31.249Z,9.60
2022-10-03T05:48:13.160Z,11.18
2022-10-03T05:51:06.634Z,7.65
2022-10-03T05:53:51.914Z,8.52
2022-10-03T05:56:29.458Z,8.27
2022-10-03T05:59:19.981Z,10.77
2022-10-03T06:02:26.125Z,13.63
2022-10-03T06:05:12.836Z,10.27
2022-10-03T06:07:52.437Z,8.85
2022-10-03T06:10:41.750Z,8.75
2022-10-03T06:13:16.127Z,7.30
2022-10-03T06:15:51.258Z,8.05
2022-10-03T06:18:37.125Z,8.95
2022-10-03T06:21:43.696Z,9.52
2022-10-03T06:24:35.853Z,7.03
2022-10-03T06:27:36.799Z,8.90
2022-10-03T06:30:21.338Z,11.98
2022-10-03T06:36:09.957Z,8.40
2022-10-03T06:39:06.843Z,8.73
2022-10-03T06:42:03.344Z,9.82
2022-10-03T06:45:01.404Z,9.43
2022-10-03T06:47:41.771Z,10.85
2022-10-03T06:50:44.436Z,9.57
2022-10-03T06:53:24.335Z,9.93
2022-10-03T06:56:04.025Z,11.77
2022-10-03T06:58:57.502Z,10.70
2022-10-03T07:01:52.480Z,7.97
2022-10-03T07:04:53.967Z,12.07
2022-10-03T07:07:47.269Z,8.70
2022-10-03T07:10:30.382Z,13.75
2022-10-03T07:13:14.154Z,12.07
2022-10-03T07:16:32.300Z,9.60
2022-10-03T07:19:24.665Z,12.70
2022-10-03T07:22:22.038Z,10.45
2022-10-03T07:25:39.774Z,9.63
2022-10-03T07:28:37.442Z,11.82
2022-10-03T07:31:16.433Z,10.23
2022-10-03T07:34:13.323Z,8.23
2022-10-03T07:37:18.646Z,7.38
2022-10-03T07:40:16.046Z,9.73
2022-10-03T07:43:15.412Z,10.10
2022-10-03T07:45:45.586Z,8.93
2022-10-03T07:48:48.574Z,11.07
2022-10-03T07:51:31.764Z,8.30
2022-10-03T07:54:41.051Z,12.13
2022-10-03T07:57:30.964Z,10.43
2022-10-03T08:00:15.605Z,10.10
2022-10-03T08:03:38.784Z,7.43
2022-10-03T08:06:17.857Z,9.52
2022-10-03T08:09:05.267Z,7.82
2022-10-03T08:11:55.416Z,9.18
2022-10-03T08:14:31.819Z,9.07
2022-10-03T08:17:30.501Z,7.68
2022-10-03T08:20:35.834Z,9.13
2022-10-03T08:23:26.954Z,7.78
2022-10-03T08:26:04.739Z,8.25
2022-10-03T08:28:58.741Z,9.02
2022-10-03T08:32:04.439Z,8.73
2022-10-03T08:35:00.944Z,8.05
2022-10-03T08:38:10.480Z,6.80
2022-10-03T08:41:06.198Z,9.95
2022-10-03T08:44:06.261Z,12.95
2022-10-03T08:47:01.694Z,10.32
2022-10-03T08:50:05.262Z,6.65
2022-10-03T08:52:50.542Z,6.47
2022-10-03T08:55:41.673Z,13.75
2022-10-03T08:58:33.634Z,9.55
2022-10-03T09:01:22.591Z,9.32
2022-10-03T09:04:37.370Z,10.68
2022-10-03T09:07:36.718Z,9.00
2022-10-03T09:10:31.352Z,8.55
2022-10-03T09:13:29.106Z,8.95
2022-10-03T09:16:39.225Z,14.30
2022-10-03T09:19:45.020Z,6.03
2022-10-03T09:22:44.970Z,6.75
2022-10-03T09:25:22.887Z,9.68
2022-10-03T09:28:27.588Z,10.70
2022-10-03T09:31:07.380Z,9.25
2022-10-03T09:34:04.227Z,8.77
2022-10-03T09:37:14.348Z,9.20
2022-10-03T09:40:17.017Z,7.13
2022-10-03T09:43:15.562Z,5.88
2022-10-03T09:46:11.167Z,7.15
2022-10-03T09:48:54.086Z,5.22
2022-10-03T09:51:40.646Z,7.13
2022-10-03T09:54:36.517Z,5.35
2022-10-03T09:57:29.849Z,5.43
2022-10-03T10:00:20.828Z,5.50
2022-10-03T10:03:31.320Z,6.00
2022-10-03T10:06:14.140Z,8.65
2022-10-03T10:09:20.801Z,6.57
2022-10-03T10:12:09.949Z,12.27
2022-10-03T10:15:04.118Z,5.10
2022-10-03T10:18:09.994Z,4.10
2022-10-03T10:21:08.616Z,6.47
2022-10-03T10:23:50.295Z,3.85
2022-10-03T10:26:58.204Z,5.35
2022-10-03T10:29:43.232Z,5.82
2022-10-03T10:33:00.731Z,7.85
2022-10-03T10:35:53.539Z,4.13
2022-10-03T10:38:28.965Z,6.22
2022-10-03T10:41:32.731Z,9.05
2022-10-03T10:44:39.179Z,8.48
2022-10-03T10:47:27.686Z,3.53
2022-10-03T10:50:37.041Z,4.72
2022-10-03T10:53:46.870Z,5.65
2022-10-03T10:56:52.037Z,7.70
2022-10-03T11:02:32.820Z,9.00
2022-10-03T11:05:48.000Z,6.47
2022-10-03T11:09:09.478Z,5.60
2022-10-03T11:12:22.097Z,5.95
2022-10-03T11:15:34.517Z,4.90
2022-10-03T11:18:43.434Z,5.05
2022-10-03T11:21:54.033Z,4.30
2022-10-03T11:25:12.481Z,3.83
2022-10-03T11:28:08.660Z,3.65
2022-10-03T11:31:04.979Z,7.88
2022-10-03T11:34:19.339Z,5.63
2022-10-03T11:37:05.857Z,5.35
2022-10-03T11:39:43.466Z,5.68
2022-10-03T11:42:26.734Z,6.55
2022-10-03T11:44:58.334Z,5.72
2022-10-03T11:47:42.248Z,5.15
2022-10-03T11:50:27.108Z,4.68
2022-10-03T11:53:19.160Z,3.65
2022-10-03T11:55:50.305Z,3.67
2022-10-03T11:58:40.695Z,8.52
2022-10-03T12:01:23.545Z,7.78
2022-10-03T12:03:57.878Z,3.83
2022-10-03T12:06:48.747Z,3.38
2022-10-03T12:09:22.557Z,3.75
2022-10-03T12:11:56.137Z,2.47
2022-10-03T12:14:28.558Z,5.18
2022-10-03T12:17:04.349Z,3.03
2022-10-03T12:19:37.204Z,5.68
2022-10-03T12:22:22.176Z,4.18
2022-10-03T12:24:50.054Z,2.40
2022-10-03T12:27:25.373Z,2.28
2022-10-03T12:29:59.497Z,2.53
2022-10-03T12:35:09.029Z,3.40
2022-10-03T12:38:02.805Z,5.65
2022-10-03T12:40:33.967Z,4.28
2022-10-03T12:43:19.907Z,2.60
2022-10-03T12:45:52.304Z,3.75
2022-10-03T12:48:40.716Z,2.47
2022-10-03T12:51:17.165Z,1.80
2022-10-03T12:53:57.869Z,3.53
2022-10-03T12:56:33.530Z,4.93
2022-10-03T12:59:18.125Z,2.72
2022-10-03T13:02:19.608Z,2.25
2022-10-03T13:05:02.816Z,3.20
2022-10-03T13:07:39.736Z,3.33
2022-10-03T13:10:21.410Z,3.88
2022-10-03T13:12:52.433Z,4.38
2022-10-03T13:15:46.684Z,6.65
2022-10-03T13:18:22.977Z,2.50
2022-10-03T13:20:58.524Z,3.28
2022-10-03T13:23:36.409Z,3.80
2022-10-03T13:26:14.825Z,4.10
2022-10-03T13:29:12.270Z,3.15
2022-10-03T13:31:52.092Z,7.70
2022-10-03T13:34:20.686Z,2.05
2022-10-03T13:36:55.338Z,1.75
2022-10-03T13:39:24.944Z,2.72
2022-10-03T13:42:08.101Z,4.68
2022-10-03T13:44:38.618Z,2.10
2022-10-03T13:47:20.356Z,1.25
2022-10-03T13:49:53.500Z,1.60
2022-10-03T13:52:29.039Z,2.78
2022-10-03T13:55:14.913Z,3.80
2022-10-03T13:57:50.502Z,2.65
2022-10-03T14:00:20.969Z,2.63
2022-10-03T14:03:09.264Z,2.30
2022-10-03T14:05:55.898Z,3.50
2022-10-03T14:08:53.138Z,3.63
2022-10-03T14:11:24.856Z,3.28
2022-10-03T14:14:16.175Z,3.05
2022-10-03T14:16:51.236Z,2.03
2022-10-03T14:19:22.026Z,1.40
2022-10-03T14:22:05.961Z,2.50
2022-10-03T14:24:44.902Z,1.98
2022-10-03T14:27:30.000Z,1.75
2022-10-03T14:30:05.063Z,1.73
2022-10-03T14:32:49.515Z,2.75
2022-10-03T14:37:57.073Z,1.65
2022-10-03T14:40:37.011Z,1.98
2022-10-03T14:43:22.137Z,4.63
2022-10-03T14:45:53.287Z,3.25
2022-10-03T14:48:23.423Z,5.45
2022-10-03T14:50:54.556Z,1.20
2022-10-03T14:53:25.401Z,5.05
2022-10-03T14:55:59.422Z,4.68
2022-10-03T14:58:28.775Z,4.28
2022-10-03T15:01:04.002Z,1.60
2022-10-03T15:03:34.508Z,5.30
2022-10-03T15:06:18.187Z,2.97
2022-10-03T15:08:49.952Z,2.63
2022-10-03T15:11:21.930Z,3.38
2022-10-03T15:13:54.538Z,2.28
2022-10-03T15:16:24.141Z,1.73
2022-10-03T15:18:53.748Z,1.95
2022-10-03T15:21:21.871Z,1.17
2022-10-03T15:23:55.874Z,2.30
2022-10-03T15:26:25.253Z,2.53
2022-10-03T15:28:56.684Z,1.30
2022-10-03T15:31:33.334Z,1.50
2022-10-03T15:34:02.109Z,0.65
2022-10-03T15:36:33.184Z,0.85
2022-10-03T15:39:04.507Z,1.58
2022-10-03T15:41:36.607Z,3.92
2022-10-03T15:44:05.860Z,1.23
2022-10-03T15:46:39.673Z,1.75
2022-10-03T15:49:09.616Z,1.95
2022-10-03T15:51:37.624Z,1.60
2022-10-03T15:54:07.819Z,1.20
2022-10-03T15:56:39.930Z,0.63
2022-10-03T15:59:09.606Z,2.30
2022-10-03T16:01:41.006Z,2.03
2022-10-03T16:04:17.396Z,5.22
2022-10-03T16:06:47.940Z,3.10
2022-10-03T16:09:22.937Z,1.27
2022-10-03T16:11:58.160Z,2.80
2022-10-03T16:14:28.753Z,1.67
2022-10-03T16:16:59.750Z,2.25
2022-10-03T16:19:39.369Z,1.25
2022-10-03T16:22:22.773Z,2.17
2022-10-03T16:24:58.621Z,1.23
2022-10-03T16:27:29.746Z,4.43
2022-10-03T16:30:16.109Z,3.47
2022-10-03T16:32:50.807Z,4.18
2022-10-03T16:35:31.943Z,2.45
2022-10-03T16:38:00.427Z,5.93
2022-10-03T16:40:27.802Z,2.17
2022-10-03T16:42:58.305Z,2.38
2022-10-03T16:45:29.705Z,2.53
2022-10-03T16:48:00.354Z,4.72
2022-10-03T16:50:27.443Z,2.42
2022-10-03T16:52:58.835Z,2.78
2022-10-03T16:55:31.237Z,1.73
2022-10-03T16:58:04.020Z,2.13
2022-10-03T17:01:04.066Z,5.93
2022-10-03T17:03:44.183Z,3.17
2022-10-03T17:08:48.779Z,1.88
2022-10-03T17:11:20.171Z,1.27
2022-10-03T17:13:51.293Z,2.90
2022-10-03T17:16:30.921Z,2.05
2022-10-03T17:19:11.656Z,1.73
2022-10-03T17:21:43.712Z,2.53
2022-10-03T17:24:14.016Z,4.50
2022-10-03T17:26:43.026Z,3.25
2022-10-03T17:29:16.046Z,6.00
2022-10-03T17:31:46.403Z,3.00
2022-10-03T17:34:18.595Z,3.50
2022-10-03T17:37:19.791Z,2.47
2022-10-03T17:39:59.991Z,2.38
2022-10-03T17:42:37.751Z,1.70
2022-10-03T17:45:31.017Z,3.17
2022-10-03T17:48:04.711Z,4.63
2022-10-03T17:50:37.685Z,1.70
2022-10-03T17:53:05.342Z,3.83
2022-10-03T17:55:39.267Z,2.78
2022-10-03T17:58:12.335Z,2.55
2022-10-03T18:00:57.981Z,2.05
2022-10-03T18:03:30.219Z,1.85
2022-10-03T18:06:21.744Z,1.30
2022-10-03T18:08:50.870Z,1.77
2022-10-03T18:11:21.460Z,2.80
2022-10-03T18:13:53.212Z,4.03
2022-10-03T18:16:25.397Z,2.55
2022-10-03T18:19:13.062Z,3.58
2022-10-03T18:21:57.004Z,2.90
2022-10-03T18:24:37.871Z,3.08
2022-10-03T18:27:21.597Z,2.15
2022-10-03T18:29:53.713Z,1.43
2022-10-03T18:32:22.966Z,1.50
2022-10-03T18:34:58.780Z,2.47
2022-10-03T18:38:03.463Z,3.35
2022-10-03T18:40:35.300Z,2.38
2022-10-03T18:43:05.104Z,1.30
2022-10-03T18:45:38.103Z,2.95
2022-10-03T18:48:10.733Z,1.52
2022-10-03T18:50:56.128Z,3.20
2022-10-03T18:53:31.938Z,2.30
2022-10-03T18:56:03.748Z,2.28
2022-10-03T18:58:35.807Z,2.83
2022-10-03T19:01:07.309Z,2.00
2022-10-03T19:03:36.932Z,2.80
2022-10-03T19:06:06.725Z,2.38
2022-10-03T19:08:37.694Z,5.47
2022-10-03T19:11:17.659Z,3.22
2022-10-03T19:13:54.075Z,3.97
2022-10-03T19:16:59.693Z,2.40
2022-10-03T19:19:32.612Z,3.45
2022-10-03T19:22:04.818Z,2.45
2022-10-03T19:24:56.883Z,4.97
2022-10-03T19:27:28.330Z,2.33
2022-10-03T19:29:57.752Z,3.05
2022-10-03T19:32:30.506Z,7.82
2022-10-03T19:35:01.023Z,2.63
2022-10-03T19:37:45.083Z,3.30
2022-10-03T19:40:15.406Z,1.95
2022-10-03T19:42:48.406Z,1.73
2022-10-03T19:45:16.817Z,1.98
2022-10-03T19:47:50.978Z,2.92
2022-10-03T19:52:48.075Z,2.13
2022-10-03T19:55:18.805Z,2.05
2022-10-03T19:57:50.986Z,5.97
2022-10-03T20:00:27.534Z,2.58
2022-10-03T20:03:05.572Z,1.45
2022-10-03T20:05:39.326Z,2.08
2022-10-03T20:08:19.772Z,2.60
2022-10-03T20:11:02.722Z,3.90
2022-10-03T20:13:31.261Z,2.17
2022-10-03T20:15:58.376Z,3.08
2022-10-03T20:18:29.742Z,4.25
2022-10-03T20:20:58.615Z,1.40
2022-10-03T20:23:27.897Z,2.75
2022-10-03T20:26:00.302Z,4.18
2022-10-03T20:28:46.110Z,2.35
2022-10-03T20:31:22.641Z,4.43
2022-10-03T20:33:51.770Z,3.72
2022-10-03T20:36:23.058Z,2.50
2022-10-03T20:39:12.057Z,3.63
2022-10-03T20:41:50.738Z,3.33
2022-10-03T20:44:29.058Z,6.03
2022-10-03T20:47:05.498Z,4.07
2022-10-03T20:49:34.922Z,3.00
2022-10-03T20:52:05.286Z,2.72
2022-10-03T20:54:37.045Z,3.38
2022-10-03T20:57:09.549Z,2.75
2022-10-03T20:59:44.642Z,4.63
2022-10-03T21:02:27.029Z,2.80
2022-10-03T21:04:57.584Z,2.13
2022-10-03T21:07:32.301Z,1.70
2022-10-03T21:10:08.107Z,1.73
2022-10-03T21:12:40.769Z,1.48
2022-10-03T21:15:13.152Z,2.70
2022-10-03T21:17:44.051Z,2.45
2022-10-03T21:20:16.800Z,2.42
2022-10-03T21:22:46.806Z,2.03
2022-10-03T21:25:20.473Z,5.72
2022-10-03T21:27:50.272Z,6.40
2022-10-03T21:30:20.462Z,2.92
2022-10-03T21:32:58.002Z,2.85
2022-10-03T21:35:27.815Z,2.05
2022-10-03T21:38:05.317Z,2.97
2022-10-03T21:40:56.921Z,2.45
2022-10-03T21:43:39.837Z,2.95
2022-10-03T21:46:15.766Z,3.13
2022-10-03T21:48:57.898Z,3.72
2022-10-03T21:51:27.969Z,2.67
2022-10-03T21:54:06.579Z,2.25
2022-10-03T21:56:47.157Z,2.63
2022-10-03T21:59:38.711Z,3.22
2022-10-03T22:02:15.637Z,2.92
2022-10-03T22:04:47.768Z,3.13
2022-10-03T22:07:16.276Z,3.30
2022-10-03T22:09:47.534Z,3.42
2022-10-03T22:12:17.046Z,4.47
2022-10-03T22:14:49.155Z,2.78
2022-10-03T22:17:25.390Z,3.80
2022-10-03T22:19:57.740Z,5.80
2022-10-03T22:22:39.874Z,2.17
2022-10-03T22:25:15.141Z,4.35
2022-10-03T22:27:49.746Z,2.42
2022-10-03T22:30:18.589Z,2.08
2022-10-03T22:33:02.385Z,2.50
2022-10-03T22:35:48.189Z,1.63
2022-10-03T22:38:16.236Z,1.52
2022-10-03T22:40:45.028Z,3.67
2022-10-03T22:43:14.144Z,2.72
2022-10-03T22:45:44.268Z,2.47
2022-10-03T22:48:17.752Z,2.90
2022-10-03T22:50:45.030Z,6.28
2022-10-03T22:53:15.081Z,2.45
2022-10-03T22:55:44.168Z,2.63
2022-10-03T22:58:12.765Z,1.95
2022-10-03T23:00:42.890Z,6.85
2022-10-03T23:03:15.498Z,2.80
2022-10-03T23:06:00.140Z,2.70
2022-10-03T23:08:37.029Z,2.45
2022-10-03T23:11:13.891Z,4.43
2022-10-03T23:13:42.383Z,2.55
2022-10-03T23:16:22.224Z,2.78
2022-10-03T23:18:59.717Z,1.77
2022-10-03T23:21:26.768Z,3.72
2022-10-03T23:24:03.790Z,2.40
2022-10-03T23:27:00.808Z,2.00
2022-10-03T23:29:27.589Z,2.17
2022-10-03T23:31:57.848Z,2.50
2022-10-03T23:34:46.314Z,2.63
2022-10-03T23:37:43.923Z,2.83
2022-10-03T23:40:44.104Z,3.65
2022-10-03T23:43:29.357Z,2.50
2022-10-03T23:45:59.791Z,2.60
2022-10-03T23:48:28.886Z,1.75
2022-10-03T23:50:59.822Z,2.88
2022-10-03T23:53:31.506Z,4.53
2022-10-03T23:56:01.237Z,2.28
2022-10-03T23:58:30.159Z,4.50
